WETTERDATEN

GESTERN
Time Temp. Taup. r.Fe. Windrich Windstärke Windböe Druck 1h Prec. 24h Prec.
00:06 0.8 -2.4 77 38 0.3 1.1 1036.9 0.0000 0.0000
00:16 0.7 -2.4 78 52 0.3 0.8 1036.9 0.0000 0.0000
00:27 0.4 -2.6 78 45 0.3 0.8 1036.9 0.0000 0.0000
00:36 0.2 -2.7 79 57 0.3 0.8 1037 0.0000 0.0000
00:46 0 -2.8 79 45 0.3 1.1 1037.1 0.0000 0.0000
00:57 -0.3 -3 80 40 0.3 1.1 1037.1 0.0000 0.0000
01:07 -0.5 -3.2 80 49 0.3 1.1 1037.2 0.0000 0.0000
01:17 -0.7 -3.4 80 27 0.3 1.1 1037.2 0.0000 0.0000
01:27 -0.8 -3.3 81 45 0.3 0.8 1037.2 0.0000 0.0000
01:37 -1 -3.5 81 90 0.3 0.8 1037.3 0.0000 0.0000
01:47 -1.1 -3.5 82 90 0.3 1.1 1037.3 0.0000 0.0000
01:57 -1.2 -3.6 82 90 0.3 0.8 1037.4 0.0000 0.0000
02:07 -1.4 -3.8 82 90 0.3 0.8 1037.3 0.0000 0.0000
02:17 -1.6 -3.8 83 90 0.3 0.8 1037.3 0.0000 0.0000
02:27 -1.7 -3.9 83 90 0.3 0.8 1037.3 0.0000 0.0000
02:37 -1.7 -3.9 83 90 0.3 0.8 1037.2 0.0000 0.0000
02:48 -1.9 -4 84 27 0.3 1.1 1037.2 0.0000 0.0000
02:57 -1.9 -4 84 90 0.3 0.8 1037.1 0.0000 0.0000
03:07 -2 -4.1 84 90 0.3 0.8 1037 0.0000 0.0000
03:18 -2.1 -4.2 84 40 0.3 1.1 1037.1 0.0000 0.0000
03:28 -2.3 -4.2 85 90 0.3 0.8 1037 0.0000 0.0000
03:38 -2.4 -4.3 85 50 0.3 0.8 1037 0.0000 0.0000
03:48 -2.5 -4.4 85 59 0.3 0.8 1037.2 0.0000 0.0000
03:58 -2.7 -4.6 85 45 0.3 0.8 1037.2 0.0000 0.0000
04:08 -2.8 -4.7 85 34 0.3 0.8 1037.2 0.0000 0.0000
04:18 -2.8 -4.7 85 45 0.3 0.8 1037.2 0.0000 0.0000
04:29 -2.9 -4.7 86 26 0.3 0.8 1037.2 0.0000 0.0000
04:38 -3 -4.8 86 39 0.3 1.1 1037.2 0.0000 0.0000
04:48 -3.1 -4.9 86 45 0.3 0.8 1037.3 0.0000 0.0000
04:58 -3.1 -4.9 86 45 0.3 0.8 1037.3 0.0000 0.0000
05:09 -3.1 -4.9 86 45 0.3 0.8 1037.3 0.0000 0.0000
05:19 -3.2 -5 86 45 0.3 0.8 1037.4 0.0000 0.0000
05:28 -3.3 -4.9 87 59 0.3 0.8 1037.4 0.0000 0.0000
05:39 -3.4 -5 87 35 0.3 0.8 1037.4 0.0000 0.0000
05:49 -3.6 -5.2 87 37 0.3 0.8 1037.4 0.0000 0.0000
05:59 -3.7 -5.3 87 53 0.3 0.8 1037.4 0.0000 0.0000
06:09 -3.8 -5.4 87 29 0.3 0.8 1037.4 0.0000 0.0000
06:19 -3.8 -5.4 87 161 0.3 0.8 1037.4 0.0000 0.0000
06:29 -3.8 -5.4 87 26 0.3 0.8 1037.5 0.0000 0.0000
06:39 -3.8 -5.3 88 90 0.3 0.8 1037.4 0.0000 0.0000
06:50 -3.8 -5.3 88 90 0.3 0.8 1037.5 0.0000 0.0000
06:59 -3.9 -5.4 88 45 0.3 0.8 1037.7 0.0000 0.0000
07:09 -3.9 -5.4 88 45 0.3 0.8 1037.7 0.0000 0.0000
07:20 -3.9 -5.4 88 45 0.3 0.8 1037.8 0.0000 0.0000
07:30 -3.7 -5.1 89 60 0.3 0.8 1037.7 0.0000 0.0000
07:40 -3.4 -4.8 89 90 0.3 0.8 1037.8 0.0000 0.0000
07:49 -3.1 -4.3 90 125 0.3 0.8 1037.8 0.0000 0.0000
08:00 -2.7 -3.9 90 90 0.3 0.8 1037.8 0.0000 0.0000
08:10 -2.3 -3.6 90 90 0.3 1.1 1037.8 0.0000 0.0000
08:20 -1.7 -3 90 143 0.3 1.4 1037.8 0.0000 0.0000
08:30 -1.4 -2.7 90 171 0.8 1.7 1037.9 0.0000 0.0000
08:40 -0.9 -2.2 90 153 0.3 1.7 1037.9 0.0000 0.0000
08:50 -0.4 -1.7 90 33 0.3 1.1 1037.9 0.0000 0.0000
09:00 0 -1.4 89 135 0.3 1.4 1037.9 0.0000 0.0000
09:11 0.5 -1.1 88 177 0.3 1.1 1037.9 0.0000 0.0000
09:21 1.4 -0.5 87 45 0.3 1.1 1037.8 0.0000 0.0000
09:30 2.3 0 85 135 0.3 1.4 1037.8 0.0000 0.0000
09:41 3.2 0.4 82 90 0.3 1.4 1037.8 0.0000 0.0000
09:51 3.9 0.6 79 155 0.8 1.4 1037.7 0.0000 0.0000
10:01 4.7 0.8 76 90 0.3 1.1 1037.7 0.0000 0.0000
10:11 5.4 1.1 74 162 0.8 2.2 1037.5 0.0000 0.0000
10:21 6.1 1.2 71 90 0.3 1.1 1037.4 0.0000 0.0000
10:31 6.8 1.3 68 170 0.8 1.7 1037.3 0.0000 0.0000
10:41 7.5 1.6 66 108 0.8 1.4 1037.2 0.0000 0.0000
10:51 8 1.4 63 90 0.8 1.4 1037.1 0.0000 0.0000
11:02 8.5 1.6 62 169 0.8 2.2 1037.1 0.0000 0.0000
11:11 8.9 1.6 60 174 1.1 2.2 1037 0.0000 0.0000
11:21 9.7 2.1 59 90 0.8 1.4 1036.9 0.0000 0.0000
11:32 10.4 2 56 119 0.8 2.2 1036.8 0.0000 0.0000
11:42 10.8 2.1 55 132 0.8 2.2 1036.7 0.0000 0.0000
11:52 11.6 2.6 54 78 0.8 1.7 1036.5 0.0000 0.0000
12:02 12.2 2.6 52 73 0.8 1.4 1036.3 0.0000 0.0000
12:12 12.9 3 51 110 0.8 1.7 1036.1 0.0000 0.0000
12:22 13.6 3.1 49 153 0.8 2.2 1035.9 0.0000 0.0000
12:32 14.2 3.4 48 129 1.1 2.2 1035.6 0.0000 0.0000
12:43 14.7 3.5 47 47 0.8 1.7 1035.4 0.0000 0.0000
12:52 15.4 3.9 46 158 0.8 2.2 1035.2 0.0000 0.0000
13:02 15.8 3.9 45 45 0.8 1.4 1035.1 0.0000 0.0000
13:12 16.4 3.8 43 122 0.8 2.2 1035 0.0000 0.0000
13:23 16.9 3.9 42 53 0.8 1.7 1034.8 0.0000 0.0000
13:33 17.3 3.9 41 180 1.1 2.5 1034.6 0.0000 0.0000
13:43 17.6 3.9 40 191 1.1 1.7 1034.5 0.0000 0.0000
13:53 17.9 4.1 40 135 0.8 1.7 1034.4 0.0000 0.0000
14:03 18 4.2 40 38 0.8 2.2 1034.3 0.0000 0.0000
14:13 18.6 4 38 183 1.1 2.5 1034.2 0.0000 0.0000
14:23 18.2 3.7 38 5 0.8 1.7 1033.9 0.0000 0.0000
14:34 18.3 3.4 37 164 0.8 1.7 1033.9 0.0000 0.0000
14:43 18.1 3.2 37 3 1.1 2.5 1033.9 0.0000 0.0000
14:53 18.3 3.4 37 192 0.8 2.2 1033.8 0.0000 0.0000
15:04 18.3 3.4 37 193 0.8 2.5 1033.7 0.0000 0.0000
15:14 18.3 3.8 38 270 0.8 2.2 1033.7 0.0000 0.0000
15:23 18.2 3.7 38 0 0.8 1.4 1033.6 0.0000 0.0000
15:33 18.2 3.7 38 212 0.8 1.7 1033.6 0.0000 0.0000
15:44 17.5 3.4 39 356 0.8 2.2 1033.5 0.0000 0.0000
15:54 16.3 3 41 4 0.8 1.7 1033.5 0.0000 0.0000
16:04 15.5 2.7 42 10 0.8 2.2 1033.4 0.0000 0.0000
16:14 15 2.5 43 4 0.8 2.5 1033.4 0.0000 0.0000
16:24 14.6 2.8 45 5 1.1 3.3 1033.4 0.0000 0.0000
16:34 14.3 2.8 46 8 0.8 1.4 1033.3 0.0000 0.0000
16:44 13.9 2.5 46 4 1.1 2.8 1033.3 0.0000 0.0000
16:55 13.5 2.4 47 33 0.8 2.2 1033.2 0.0000 0.0000
17:05 13.1 2.6 49 8 1.1 2.8 1033.3 0.0000 0.0000
17:14 12.7 2.6 50 12 0.8 1.7 1033.3 0.0000 0.0000
17:25 12.2 2.4 51 11 0.8 1.7 1033.3 0.0000 0.0000
17:35 11.6 2.1 52 18 0.8 1.7 1033.4 0.0000 0.0000
17:45 11.2 2 53 33 0.8 1.4 1033.5 0.0000 0.0000
17:54 10.7 1.8 54 26 0.8 1.4 1033.6 0.0000 0.0000
18:05 10.2 1.3 54 21 0.8 1.4 1033.7 0.0000 0.0000
18:15 9.8 1.2 55 47 0.8 1.1 1033.8 0.0000 0.0000
18:25 9.4 1.3 57 102 0.8 1.4 1034 0.0000 0.0000
18:35 8.9 1.1 58 77 0.8 1.4 1034 0.0000 0.0000
18:46 8.3 1 60 78 0.8 1.4 1034.2 0.0000 0.0000
18:55 7.7 0.7 61 60 0.8 1.4 1034.3 0.0000 0.0000
19:05 7.1 0.3 62 60 0.8 1.1 1034.4 0.0000 0.0000
19:16 6.6 0.3 64 57 0.8 1.4 1034.5 0.0000 0.0000
19:26 6.1 0 65 45 1.1 1.4 1034.6 0.0000 0.0000
19:36 5.7 -0.1 66 65 0.8 1.1 1034.7 0.0000 0.0000
19:46 5.2 -0.4 67 52 0.8 1.4 1034.8 0.0000 0.0000
19:56 4.8 -0.5 68 45 0.8 1.4 1035 0.0000 0.0000
20:06 4.4 -0.9 68 56 0.8 1.4 1035.1 0.0000 0.0000
20:16 4.1 -0.9 69 49 0.8 1.4 1035.2 0.0000 0.0000
20:27 3.8 -1 70 49 0.8 1.4 1035.3 0.0000 0.0000
20:36 3.4 -1.2 71 42 0.8 1.4 1035.4 0.0000 0.0000
20:46 3.1 -1.3 72 45 0.8 1.4 1035.4 0.0000 0.0000
20:51 2.9 -1.5 72 55 0.8 1.1 1035.5 0.0000 0.0000
21:01 2.7 -1.5 73 45 0.8 1.4 1035.6 0.0000 0.0000
21:11 2.5 -1.6 73 60 0.8 1.4 1035.7 0.0000 0.0000
21:21 2.2 -1.7 74 45 0.8 1.4 1035.9 0.0000 0.0000
21:32 2 -1.7 75 123 0.3 0.8 1036 0.0000 0.0000
21:42 1.8 -1.9 75 90 0.3 1.1 1036.1 0.0000 0.0000
21:51 1.5 -2 76 45 0.3 0.8 1036.1 0.0000 0.0000
22:01 1.3 -2.2 76 90 0.3 0.8 1036.1 0.0000 0.0000
22:12 1.1 -2.2 77 90 0.3 0.8 1036.2 0.0000 0.0000
22:22 0.9 -2.4 77 51 0.3 0.8 1036.1 0.0000 0.0000
22:31 0.7 -2.4 78 90 0.3 0.8 1036.2 0.0000 0.0000
22:42 0.5 -2.6 78 90 0.3 0.8 1036.1 0.0000 0.0000
22:52 0.3 -2.6 79 54 0.3 1.1 1036.1 0.0000 0.0000
23:02 0.2 -2.7 79 51 0.3 0.8 1036.2 0.0000 0.0000
23:12 0.1 -2.6 80 45 0.3 0.8 1036.2 0.0000 0.0000
23:22 -0.1 -2.8 80 45 0.3 0.8 1036.2 0.0000 0.0000
23:32 -0.3 -3 80 45 0.3 0.8 1036.2 0.0000 0.0000
23:42 -0.5 -3 81 57 0.3 0.8 1036.1 0.0000 0.0000
23:53 -0.6 -3.1 81 53 0.3 0.8 1036.2 0.0000 0.0000

TAGESSTATISTIK

2021-03-02
TEMPERATUR
MITTEL
4.8
MAXIMUM
18.6
14:13
MINIMUM
-3.9
06:59
LUFTDRUCK
MITTEL
1036.0
MAXIMUM
1037.9
08:30
MINIMUM
1033.2
16:55
TAUPUNKT
MITTEL
-0.9
MAXIMUM
4.2
14:03
MINIMUM
-5.4
06:09
FEUCHTIGKEIT
MITTEL
69
MAXIMUM
90
07:49
MINIMUM
37
14:34
WINDSTÄRKE
MITTEL
0.6
MAXIMUM
1.1
11:11
WINDBÖE
MITTEL
1.3
MAXIMUM
3.3
16:24
WINDRICHTUNG
VORHERRSCHENDE
NO
46.9%
N
10.5
NO
46.9
O
22.4
SO
9.1
S
9.8
SW
0.7
W
0.7
NW
0.0
NIEDERSCHLAG
REGEN STUNDE
0.0
REGEN TAG
0.0
TEMPERATUR (°C)
MINIMUM
-3.9
MAXIMUM
18.6
MITTEL
4.8
LUFTDRUCK (hpa)
MINIMUM
1033.2
MAXIMUM
1037.9
MITTEL
1036.0
MESSGERÄT